sensor_id;sensor_type;location;lat;lon;timestamp;P1;durP1;ratioP1;P2;durP2;ratioP2
12296;SDS011;6211;49.124;9.152;2022-08-03T00:00:20;1.40;;;1.30;;
12296;SDS011;6211;49.124;9.152;2022-08-03T00:02:48;1.58;;;1.40;;
12296;SDS011;6211;49.124;9.152;2022-08-03T00:05:16;1.40;;;1.30;;
12296;SDS011;6211;49.124;9.152;2022-08-03T00:07:43;2.35;;;1.20;;
12296;SDS011;6211;49.124;9.152;2022-08-03T00:10:11;1.85;;;1.70;;
12296;SDS011;6211;49.124;9.152;2022-08-03T00:12:38;1.45;;;1.35;;
12296;SDS011;6211;49.124;9.152;2022-08-03T00:15:06;2.47;;;1.55;;
12296;SDS011;6211;49.124;9.152;2022-08-03T00:17:34;1.80;;;1.70;;
12296;SDS011;6211;49.124;9.152;2022-08-03T00:20:01;2.55;;;1.30;;
12296;SDS011;6211;49.124;9.152;2022-08-03T00:22:29;1.52;;;1.42;;
12296;SDS011;6211;49.124;9.152;2022-08-03T00:24:56;1.85;;;1.60;;
12296;SDS011;6211;49.124;9.152;2022-08-03T00:27:24;2.00;;;1.80;;
12296;SDS011;6211;49.124;9.152;2022-08-03T00:29:51;1.80;;;1.70;;
12296;SDS011;6211;49.124;9.152;2022-08-03T00:32:18;4.82;;;1.42;;
12296;SDS011;6211;49.124;9.152;2022-08-03T00:34:45;1.42;;;1.33;;
12296;SDS011;6211;49.124;9.152;2022-08-03T00:37:12;3.08;;;1.50;;
12296;SDS011;6211;49.124;9.152;2022-08-03T00:39:41;1.92;;;1.50;;
12296;SDS011;6211;49.124;9.152;2022-08-03T00:42:09;2.17;;;1.65;;
12296;SDS011;6211;49.124;9.152;2022-08-03T00:44:38;4.63;;;1.65;;
12296;SDS011;6211;49.124;9.152;2022-08-03T00:47:05;1.50;;;1.40;;
12296;SDS011;6211;49.124;9.152;2022-08-03T00:49:34;1.50;;;1.40;;
12296;SDS011;6211;49.124;9.152;2022-08-03T00:52:01;4.93;;;1.58;;
12296;SDS011;6211;49.124;9.152;2022-08-03T00:54:28;1.80;;;1.40;;
12296;SDS011;6211;49.124;9.152;2022-08-03T00:56:57;1.52;;;1.10;;
12296;SDS011;6211;49.124;9.152;2022-08-03T00:59:24;1.65;;;1.40;;
12296;SDS011;6211;49.124;9.152;2022-08-03T01:01:52;1.15;;;1.05;;
12296;SDS011;6211;49.124;9.152;2022-08-03T01:04:19;1.80;;;1.48;;
12296;SDS011;6211;49.124;9.152;2022-08-03T01:06:48;1.52;;;1.42;;
12296;SDS011;6211;49.124;9.152;2022-08-03T01:09:17;1.42;;;1.33;;
12296;SDS011;6211;49.124;9.152;2022-08-03T01:11:46;3.50;;;1.52;;
12296;SDS011;6211;49.124;9.152;2022-08-03T01:14:21;2.38;;;1.40;;
12296;SDS011;6211;49.124;9.152;2022-08-03T01:16:51;1.42;;;1.30;;
12296;SDS011;6211;49.124;9.152;2022-08-03T01:19:30;1.67;;;1.40;;
12296;SDS011;6211;49.124;9.152;2022-08-03T01:22:06;2.42;;;1.38;;
12296;SDS011;6211;49.124;9.152;2022-08-03T01:24:36;2.72;;;1.67;;
12296;SDS011;6211;49.124;9.152;2022-08-03T01:27:11;1.75;;;1.45;;
12296;SDS011;6211;49.124;9.152;2022-08-03T01:29:44;4.47;;;2.17;;
12296;SDS011;6211;49.124;9.152;2022-08-03T01:32:14;1.88;;;1.40;;
12296;SDS011;6211;49.124;9.152;2022-08-03T01:34:44;1.35;;;1.25;;
12296;SDS011;6211;49.124;9.152;2022-08-03T01:37:13;1.60;;;1.50;;
12296;SDS011;6211;49.124;9.152;2022-08-03T01:39:42;1.70;;;1.58;;
12296;SDS011;6211;49.124;9.152;2022-08-03T01:42:10;2.03;;;1.52;;
12296;SDS011;6211;49.124;9.152;2022-08-03T01:44:39;5.50;;;1.52;;
12296;SDS011;6211;49.124;9.152;2022-08-03T01:47:08;1.67;;;1.55;;
12296;SDS011;6211;49.124;9.152;2022-08-03T01:49:37;1.58;;;1.48;;
12296;SDS011;6211;49.124;9.152;2022-08-03T01:52:05;2.10;;;1.88;;
12296;SDS011;6211;49.124;9.152;2022-08-03T01:54:34;2.15;;;1.63;;
12296;SDS011;6211;49.124;9.152;2022-08-03T01:57:02;5.95;;;1.83;;
12296;SDS011;6211;49.124;9.152;2022-08-03T01:59:29;3.03;;;1.65;;
12296;SDS011;6211;49.124;9.152;2022-08-03T02:01:58;2.85;;;1.40;;
12296;SDS011;6211;49.124;9.152;2022-08-03T02:04:27;1.85;;;1.67;;
12296;SDS011;6211;49.124;9.152;2022-08-03T02:06:55;1.60;;;1.50;;
12296;SDS011;6211;49.124;9.152;2022-08-03T02:09:23;2.03;;;1.63;;
12296;SDS011;6211;49.124;9.152;2022-08-03T02:11:51;2.60;;;1.55;;
12296;SDS011;6211;49.124;9.152;2022-08-03T02:14:19;3.53;;;2.13;;
12296;SDS011;6211;49.124;9.152;2022-08-03T02:16:46;1.60;;;1.50;;
12296;SDS011;6211;49.124;9.152;2022-08-03T02:19:14;2.22;;;1.85;;
12296;SDS011;6211;49.124;9.152;2022-08-03T02:21:44;1.60;;;1.50;;
12296;SDS011;6211;49.124;9.152;2022-08-03T02:24:12;4.40;;;1.67;;
12296;SDS011;6211;49.124;9.152;2022-08-03T02:26:39;1.88;;;1.55;;
12296;SDS011;6211;49.124;9.152;2022-08-03T02:29:10;2.83;;;1.77;;
12296;SDS011;6211;49.124;9.152;2022-08-03T02:31:37;1.80;;;1.40;;
12296;SDS011;6211;49.124;9.152;2022-08-03T02:34:07;3.17;;;2.10;;
12296;SDS011;6211;49.124;9.152;2022-08-03T02:36:36;16.05;;;2.20;;
12296;SDS011;6211;49.124;9.152;2022-08-03T02:39:05;2.17;;;1.90;;
12296;SDS011;6211;49.124;9.152;2022-08-03T02:41:34;2.72;;;2.03;;
12296;SDS011;6211;49.124;9.152;2022-08-03T02:44:06;3.30;;;2.10;;
12296;SDS011;6211;49.124;9.152;2022-08-03T02:46:34;3.25;;;1.92;;
12296;SDS011;6211;49.124;9.152;2022-08-03T02:49:03;4.28;;;2.05;;
12296;SDS011;6211;49.124;9.152;2022-08-03T02:51:31;2.83;;;1.67;;
12296;SDS011;6211;49.124;9.152;2022-08-03T02:53:59;2.70;;;1.73;;
12296;SDS011;6211;49.124;9.152;2022-08-03T02:56:29;3.38;;;1.73;;
12296;SDS011;6211;49.124;9.152;2022-08-03T02:58:57;3.15;;;1.80;;
12296;SDS011;6211;49.124;9.152;2022-08-03T03:01:26;2.10;;;1.63;;
12296;SDS011;6211;49.124;9.152;2022-08-03T03:03:54;2.85;;;1.88;;
12296;SDS011;6211;49.124;9.152;2022-08-03T03:06:22;2.25;;;1.67;;
12296;SDS011;6211;49.124;9.152;2022-08-03T03:08:50;2.25;;;1.70;;
12296;SDS011;6211;49.124;9.152;2022-08-03T03:11:18;2.33;;;1.77;;
12296;SDS011;6211;49.124;9.152;2022-08-03T03:13:48;2.17;;;1.70;;
12296;SDS011;6211;49.124;9.152;2022-08-03T03:16:16;1.63;;;1.50;;
12296;SDS011;6211;49.124;9.152;2022-08-03T03:18:45;1.85;;;1.50;;
12296;SDS011;6211;49.124;9.152;2022-08-03T03:21:15;2.00;;;1.80;;
12296;SDS011;6211;49.124;9.152;2022-08-03T03:23:42;1.58;;;1.48;;
12296;SDS011;6211;49.124;9.152;2022-08-03T03:26:10;1.67;;;1.58;;
12296;SDS011;6211;49.124;9.152;2022-08-03T03:28:38;1.88;;;1.58;;
12296;SDS011;6211;49.124;9.152;2022-08-03T03:31:08;6.15;;;1.52;;
12296;SDS011;6211;49.124;9.152;2022-08-03T03:33:35;1.88;;;1.42;;
12296;SDS011;6211;49.124;9.152;2022-08-03T03:36:03;2.08;;;1.50;;
12296;SDS011;6211;49.124;9.152;2022-08-03T03:38:31;1.65;;;1.52;;
12296;SDS011;6211;49.124;9.152;2022-08-03T03:40:58;1.90;;;1.80;;
12296;SDS011;6211;49.124;9.152;2022-08-03T03:43:25;1.42;;;1.33;;
12296;SDS011;6211;49.124;9.152;2022-08-03T03:45:53;5.60;;;1.75;;
12296;SDS011;6211;49.124;9.152;2022-08-03T03:48:22;1.67;;;1.58;;
12296;SDS011;6211;49.124;9.152;2022-08-03T03:50:50;2.08;;;1.85;;
12296;SDS011;6211;49.124;9.152;2022-08-03T03:53:17;1.73;;;1.35;;
12296;SDS011;6211;49.124;9.152;2022-08-03T03:55:44;1.40;;;1.30;;
12296;SDS011;6211;49.124;9.152;2022-08-03T03:58:11;1.63;;;1.52;;
12296;SDS011;6211;49.124;9.152;2022-08-03T04:00:38;1.88;;;1.60;;
12296;SDS011;6211;49.124;9.152;2022-08-03T04:03:06;1.48;;;1.38;;
12296;SDS011;6211;49.124;9.152;2022-08-03T04:05:37;2.00;;;1.80;;
12296;SDS011;6211;49.124;9.152;2022-08-03T04:08:22;1.63;;;1.40;;
12296;SDS011;6211;49.124;9.152;2022-08-03T04:11:09;1.75;;;1.65;;
12296;SDS011;6211;49.124;9.152;2022-08-03T04:13:37;1.80;;;1.70;;
12296;SDS011;6211;49.124;9.152;2022-08-03T04:16:05;1.83;;;1.50;;
12296;SDS011;6211;49.124;9.152;2022-08-03T04:18:33;3.17;;;1.48;;
12296;SDS011;6211;49.124;9.152;2022-08-03T04:21:03;1.70;;;1.60;;
12296;SDS011;6211;49.124;9.152;2022-08-03T04:23:32;2.15;;;1.23;;
12296;SDS011;6211;49.124;9.152;2022-08-03T04:26:00;1.50;;;1.40;;
12296;SDS011;6211;49.124;9.152;2022-08-03T04:28:27;2.15;;;1.70;;
12296;SDS011;6211;49.124;9.152;2022-08-03T04:30:55;1.88;;;1.65;;
12296;SDS011;6211;49.124;9.152;2022-08-03T04:33:23;1.60;;;1.50;;
12296;SDS011;6211;49.124;9.152;2022-08-03T04:35:52;2.08;;;1.55;;
12296;SDS011;6211;49.124;9.152;2022-08-03T04:38:22;4.20;;;1.98;;
12296;SDS011;6211;49.124;9.152;2022-08-03T04:40:51;1.75;;;1.63;;
12296;SDS011;6211;49.124;9.152;2022-08-03T04:43:18;2.22;;;1.95;;
12296;SDS011;6211;49.124;9.152;2022-08-03T04:45:46;1.60;;;1.42;;
12296;SDS011;6211;49.124;9.152;2022-08-03T04:48:13;1.83;;;1.65;;
12296;SDS011;6211;49.124;9.152;2022-08-03T04:50:41;1.92;;;1.73;;
12296;SDS011;6211;49.124;9.152;2022-08-03T04:53:08;2.83;;;1.83;;
12296;SDS011;6211;49.124;9.152;2022-08-03T04:55:37;2.05;;;1.63;;
12296;SDS011;6211;49.124;9.152;2022-08-03T04:58:04;1.70;;;1.60;;
12296;SDS011;6211;49.124;9.152;2022-08-03T05:00:31;2.08;;;1.90;;
12296;SDS011;6211;49.124;9.152;2022-08-03T05:02:58;2.10;;;1.90;;
12296;SDS011;6211;49.124;9.152;2022-08-03T05:05:25;2.17;;;1.80;;
12296;SDS011;6211;49.124;9.152;2022-08-03T05:07:52;1.38;;;1.30;;
12296;SDS011;6211;49.124;9.152;2022-08-03T05:10:20;1.83;;;1.73;;
12296;SDS011;6211;49.124;9.152;2022-08-03T05:12:48;1.83;;;1.58;;
12296;SDS011;6211;49.124;9.152;2022-08-03T05:15:17;1.70;;;1.60;;
12296;SDS011;6211;49.124;9.152;2022-08-03T05:17:45;2.00;;;1.90;;
12296;SDS011;6211;49.124;9.152;2022-08-03T05:20:13;1.98;;;1.77;;
12296;SDS011;6211;49.124;9.152;2022-08-03T05:22:40;1.88;;;1.70;;
12296;SDS011;6211;49.124;9.152;2022-08-03T05:25:07;1.77;;;1.67;;
12296;SDS011;6211;49.124;9.152;2022-08-03T05:27:34;2.40;;;2.20;;
12296;SDS011;6211;49.124;9.152;2022-08-03T05:30:03;2.40;;;2.13;;
12296;SDS011;6211;49.124;9.152;2022-08-03T05:32:30;2.10;;;1.90;;
12296;SDS011;6211;49.124;9.152;2022-08-03T05:34:57;2.22;;;2.03;;
12296;SDS011;6211;49.124;9.152;2022-08-03T05:37:25;2.70;;;2.17;;
12296;SDS011;6211;49.124;9.152;2022-08-03T05:39:52;2.58;;;2.20;;
12296;SDS011;6211;49.124;9.152;2022-08-03T05:42:19;4.30;;;2.05;;
12296;SDS011;6211;49.124;9.152;2022-08-03T05:44:46;2.10;;;1.90;;
12296;SDS011;6211;49.124;9.152;2022-08-03T05:47:14;2.95;;;2.17;;
12296;SDS011;6211;49.124;9.152;2022-08-03T05:49:42;2.85;;;2.20;;
12296;SDS011;6211;49.124;9.152;2022-08-03T05:52:09;2.20;;;2.00;;
12296;SDS011;6211;49.124;9.152;2022-08-03T05:54:36;1.88;;;1.77;;
12296;SDS011;6211;49.124;9.152;2022-08-03T05:57:03;1.75;;;1.65;;
12296;SDS011;6211;49.124;9.152;2022-08-03T05:59:30;2.22;;;1.98;;
12296;SDS011;6211;49.124;9.152;2022-08-03T06:01:57;3.45;;;1.65;;
12296;SDS011;6211;49.124;9.152;2022-08-03T06:04:26;2.28;;;2.03;;
12296;SDS011;6211;49.124;9.152;2022-08-03T06:06:53;9.15;;;2.25;;
12296;SDS011;6211;49.124;9.152;2022-08-03T06:09:20;3.10;;;2.17;;
12296;SDS011;6211;49.124;9.152;2022-08-03T06:11:47;1.92;;;1.73;;
12296;SDS011;6211;49.124;9.152;2022-08-03T06:14:14;1.70;;;1.42;;
12296;SDS011;6211;49.124;9.152;2022-08-03T06:16:42;2.45;;;1.92;;
12296;SDS011;6211;49.124;9.152;2022-08-03T06:19:09;1.63;;;1.52;;
12296;SDS011;6211;49.124;9.152;2022-08-03T06:21:37;1.63;;;1.52;;
12296;SDS011;6211;49.124;9.152;2022-08-03T06:24:04;2.45;;;1.80;;
12296;SDS011;6211;49.124;9.152;2022-08-03T06:26:32;1.77;;;1.67;;
12296;SDS011;6211;49.124;9.152;2022-08-03T06:28:59;2.38;;;1.90;;
12296;SDS011;6211;49.124;9.152;2022-08-03T06:31:26;2.20;;;1.67;;
12296;SDS011;6211;49.124;9.152;2022-08-03T06:33:54;2.75;;;1.90;;
12296;SDS011;6211;49.124;9.152;2022-08-03T06:36:21;2.22;;;1.98;;
12296;SDS011;6211;49.124;9.152;2022-08-03T06:38:51;1.88;;;1.63;;
12296;SDS011;6211;49.124;9.152;2022-08-03T06:41:18;2.05;;;1.83;;
12296;SDS011;6211;49.124;9.152;2022-08-03T06:43:45;3.85;;;1.90;;
12296;SDS011;6211;49.124;9.152;2022-08-03T06:46:12;1.80;;;1.70;;
12296;SDS011;6211;49.124;9.152;2022-08-03T06:48:40;2.35;;;1.70;;
12296;SDS011;6211;49.124;9.152;2022-08-03T06:51:07;2.22;;;1.90;;
12296;SDS011;6211;49.124;9.152;2022-08-03T06:53:34;1.83;;;1.73;;
12296;SDS011;6211;49.124;9.152;2022-08-03T06:56:04;2.83;;;2.00;;
12296;SDS011;6211;49.124;9.152;2022-08-03T06:58:31;1.73;;;1.52;;
12296;SDS011;6211;49.124;9.152;2022-08-03T07:00:58;1.90;;;1.58;;
12296;SDS011;6211;49.124;9.152;2022-08-03T07:03:26;3.33;;;1.67;;
12296;SDS011;6211;49.124;9.152;2022-08-03T07:05:53;1.73;;;1.50;;
12296;SDS011;6211;49.124;9.152;2022-08-03T07:08:21;2.22;;;2.03;;
12296;SDS011;6211;49.124;9.152;2022-08-03T07:10:48;1.90;;;1.55;;
12296;SDS011;6211;49.124;9.152;2022-08-03T07:13:17;3.15;;;1.75;;
12296;SDS011;6211;49.124;9.152;2022-08-03T07:15:44;3.33;;;1.45;;
12296;SDS011;6211;49.124;9.152;2022-08-03T07:18:11;10.93;;;2.33;;
12296;SDS011;6211;49.124;9.152;2022-08-03T07:20:38;4.80;;;1.67;;
12296;SDS011;6211;49.124;9.152;2022-08-03T07:23:06;7.03;;;1.70;;
12296;SDS011;6211;49.124;9.152;2022-08-03T07:25:33;3.05;;;1.73;;
12296;SDS011;6211;49.124;9.152;2022-08-03T07:28:01;2.00;;;1.80;;
12296;SDS011;6211;49.124;9.152;2022-08-03T07:30:29;2.65;;;1.60;;
12296;SDS011;6211;49.124;9.152;2022-08-03T07:32:56;5.07;;;2.33;;
12296;SDS011;6211;49.124;9.152;2022-08-03T07:35:23;7.03;;;1.85;;
12296;SDS011;6211;49.124;9.152;2022-08-03T07:37:51;2.85;;;1.60;;
12296;SDS011;6211;49.124;9.152;2022-08-03T07:40:18;5.00;;;1.70;;
12296;SDS011;6211;49.124;9.152;2022-08-03T07:42:45;3.17;;;1.58;;
12296;SDS011;6211;49.124;9.152;2022-08-03T07:45:12;2.83;;;2.08;;
12296;SDS011;6211;49.124;9.152;2022-08-03T07:47:40;1.80;;;1.70;;
12296;SDS011;6211;49.124;9.152;2022-08-03T07:50:08;7.22;;;1.70;;
12296;SDS011;6211;49.124;9.152;2022-08-03T07:52:35;1.58;;;1.27;;
12296;SDS011;6211;49.124;9.152;2022-08-03T07:55:16;1.50;;;1.40;;
12296;SDS011;6211;49.124;9.152;2022-08-03T07:57:43;1.83;;;1.63;;
12296;SDS011;6211;49.124;9.152;2022-08-03T08:00:14;5.28;;;1.60;;
12296;SDS011;6211;49.124;9.152;2022-08-03T08:02:43;2.22;;;1.45;;
12296;SDS011;6211;49.124;9.152;2022-08-03T08:05:10;1.40;;;1.30;;
12296;SDS011;6211;49.124;9.152;2022-08-03T08:07:37;7.63;;;2.20;;
12296;SDS011;6211;49.124;9.152;2022-08-03T08:10:06;8.45;;;1.80;;
12296;SDS011;6211;49.124;9.152;2022-08-03T08:12:34;1.50;;;1.35;;
12296;SDS011;6211;49.124;9.152;2022-08-03T08:15:01;1.90;;;1.42;;
12296;SDS011;6211;49.124;9.152;2022-08-03T08:17:28;1.55;;;1.45;;
12296;SDS011;6211;49.124;9.152;2022-08-03T08:19:56;3.47;;;1.25;;
12296;SDS011;6211;49.124;9.152;2022-08-03T08:22:23;1.48;;;1.38;;
12296;SDS011;6211;49.124;9.152;2022-08-03T08:24:51;5.28;;;1.63;;
12296;SDS011;6211;49.124;9.152;2022-08-03T08:27:18;1.42;;;1.30;;
12296;SDS011;6211;49.124;9.152;2022-08-03T08:29:45;2.67;;;1.92;;
12296;SDS011;6211;49.124;9.152;2022-08-03T08:32:12;4.38;;;1.70;;
12296;SDS011;6211;49.124;9.152;2022-08-03T08:34:40;1.98;;;1.35;;
12296;SDS011;6211;49.124;9.152;2022-08-03T08:37:08;2.10;;;1.67;;
12296;SDS011;6211;49.124;9.152;2022-08-03T08:39:38;3.55;;;1.58;;
12296;SDS011;6211;49.124;9.152;2022-08-03T08:42:05;1.98;;;1.38;;
12296;SDS011;6211;49.124;9.152;2022-08-03T08:44:33;1.90;;;1.45;;
12296;SDS011;6211;49.124;9.152;2022-08-03T08:47:00;1.55;;;1.40;;
12296;SDS011;6211;49.124;9.152;2022-08-03T08:49:28;2.20;;;1.83;;
12296;SDS011;6211;49.124;9.152;2022-08-03T08:51:56;2.15;;;1.33;;
12296;SDS011;6211;49.124;9.152;2022-08-03T08:54:25;2.42;;;1.13;;
12296;SDS011;6211;49.124;9.152;2022-08-03T08:56:52;1.40;;;1.20;;
12296;SDS011;6211;49.124;9.152;2022-08-03T08:59:23;1.15;;;1.05;;
12296;SDS011;6211;49.124;9.152;2022-08-03T09:01:53;6.32;;;1.60;;
12296;SDS011;6211;49.124;9.152;2022-08-03T09:04:22;3.35;;;1.30;;
12296;SDS011;6211;49.124;9.152;2022-08-03T09:06:50;4.53;;;1.90;;
12296;SDS011;6211;49.124;9.152;2022-08-03T09:09:18;1.50;;;1.10;;
12296;SDS011;6211;49.124;9.152;2022-08-03T09:11:46;1.38;;;1.10;;
12296;SDS011;6211;49.124;9.152;2022-08-03T09:14:14;1.33;;;1.20;;
12296;SDS011;6211;49.124;9.152;2022-08-03T09:16:54;2.72;;;1.13;;
12296;SDS011;6211;49.124;9.152;2022-08-03T09:19:21;1.10;;;1.10;;
12296;SDS011;6211;49.124;9.152;2022-08-03T09:21:53;1.38;;;1.27;;
12296;SDS011;6211;49.124;9.152;2022-08-03T09:24:33;1.52;;;1.30;;
12296;SDS011;6211;49.124;9.152;2022-08-03T09:27:01;1.02;;;1.02;;
12296;SDS011;6211;49.124;9.152;2022-08-03T09:29:31;1.60;;;1.33;;
12296;SDS011;6211;49.124;9.152;2022-08-03T09:31:59;1.23;;;1.13;;
12296;SDS011;6211;49.124;9.152;2022-08-03T09:34:27;1.00;;;1.00;;
12296;SDS011;6211;49.124;9.152;2022-08-03T09:36:54;1.00;;;1.00;;
12296;SDS011;6211;49.124;9.152;2022-08-03T09:39:23;1.58;;;1.17;;
12296;SDS011;6211;49.124;9.152;2022-08-03T09:42:04;1.08;;;0.98;;
12296;SDS011;6211;49.124;9.152;2022-08-03T09:44:35;0.93;;;0.90;;
12296;SDS011;6211;49.124;9.152;2022-08-03T09:47:02;0.90;;;0.90;;
12296;SDS011;6211;49.124;9.152;2022-08-03T09:49:30;1.00;;;0.82;;
12296;SDS011;6211;49.124;9.152;2022-08-03T09:51:59;0.98;;;0.90;;
12296;SDS011;6211;49.124;9.152;2022-08-03T09:54:27;1.90;;;0.70;;
12296;SDS011;6211;49.124;9.152;2022-08-03T09:56:54;0.80;;;0.80;;
12296;SDS011;6211;49.124;9.152;2022-08-03T09:59:24;0.80;;;0.80;;
12296;SDS011;6211;49.124;9.152;2022-08-03T10:01:51;0.90;;;0.90;;
12296;SDS011;6211;49.124;9.152;2022-08-03T10:04:18;0.80;;;0.70;;
12296;SDS011;6211;49.124;9.152;2022-08-03T10:06:59;0.80;;;0.80;;
12296;SDS011;6211;49.124;9.152;2022-08-03T10:09:27;0.82;;;0.82;;
12296;SDS011;6211;49.124;9.152;2022-08-03T10:11:54;0.82;;;0.82;;
12296;SDS011;6211;49.124;9.152;2022-08-03T10:14:21;0.80;;;0.80;;
12296;SDS011;6211;49.124;9.152;2022-08-03T10:16:51;1.92;;;0.95;;
12296;SDS011;6211;49.124;9.152;2022-08-03T10:19:18;1.33;;;0.88;;
12296;SDS011;6211;49.124;9.152;2022-08-03T10:21:46;1.42;;;0.77;;
12296;SDS011;6211;49.124;9.152;2022-08-03T10:24:16;0.88;;;0.85;;
12296;SDS011;6211;49.124;9.152;2022-08-03T10:26:46;1.20;;;1.10;;
12296;SDS011;6211;49.124;9.152;2022-08-03T10:29:16;0.90;;;0.90;;
12296;SDS011;6211;49.124;9.152;2022-08-03T10:31:46;0.90;;;0.90;;
12296;SDS011;6211;49.124;9.152;2022-08-03T10:34:16;0.95;;;0.95;;
12296;SDS011;6211;49.124;9.152;2022-08-03T10:36:44;0.90;;;0.90;;
12296;SDS011;6211;49.124;9.152;2022-08-03T10:39:12;1.73;;;1.10;;
12296;SDS011;6211;49.124;9.152;2022-08-03T10:41:40;0.80;;;0.80;;
12296;SDS011;6211;49.124;9.152;2022-08-03T10:44:09;0.70;;;0.70;;
12296;SDS011;6211;49.124;9.152;2022-08-03T10:46:37;0.90;;;0.90;;
12296;SDS011;6211;49.124;9.152;2022-08-03T10:49:05;1.17;;;1.08;;
12296;SDS011;6211;49.124;9.152;2022-08-03T10:51:34;1.10;;;1.00;;
12296;SDS011;6211;49.124;9.152;2022-08-03T10:54:01;1.20;;;1.00;;
12296;SDS011;6211;49.124;9.152;2022-08-03T10:56:37;3.33;;;1.20;;
12296;SDS011;6211;49.124;9.152;2022-08-03T11:02:09;0.80;;;0.80;;
12296;SDS011;6211;49.124;9.152;2022-08-03T11:04:37;1.95;;;0.80;;
12296;SDS011;6211;49.124;9.152;2022-08-03T11:07:19;1.23;;;0.90;;
12296;SDS011;6211;49.124;9.152;2022-08-03T11:09:47;1.02;;;0.85;;
12296;SDS011;6211;49.124;9.152;2022-08-03T11:12:21;0.95;;;0.95;;
12296;SDS011;6211;49.124;9.152;2022-08-03T11:14:48;1.10;;;1.00;;
12296;SDS011;6211;49.124;9.152;2022-08-03T11:17:15;1.20;;;1.10;;
12296;SDS011;6211;49.124;9.152;2022-08-03T11:19:43;2.78;;;0.90;;
12296;SDS011;6211;49.124;9.152;2022-08-03T11:22:10;0.98;;;0.90;;
12296;SDS011;6211;49.124;9.152;2022-08-03T11:27:25;1.73;;;1.05;;
12296;SDS011;6211;49.124;9.152;2022-08-03T11:29:57;1.10;;;1.05;;
12296;SDS011;6211;49.124;9.152;2022-08-03T11:35:11;0.75;;;0.75;;
12296;SDS011;6211;49.124;9.152;2022-08-03T11:38:00;0.95;;;0.93;;
12296;SDS011;6211;49.124;9.152;2022-08-03T11:40:34;0.80;;;0.80;;
12296;SDS011;6211;49.124;9.152;2022-08-03T11:43:03;0.98;;;0.98;;
12296;SDS011;6211;49.124;9.152;2022-08-03T11:45:30;0.80;;;0.80;;
12296;SDS011;6211;49.124;9.152;2022-08-03T11:47:58;0.93;;;0.93;;
12296;SDS011;6211;49.124;9.152;2022-08-03T11:50:25;0.98;;;0.98;;
12296;SDS011;6211;49.124;9.152;2022-08-03T11:52:54;0.70;;;0.70;;
12296;SDS011;6211;49.124;9.152;2022-08-03T11:55:21;1.58;;;1.00;;
12296;SDS011;6211;49.124;9.152;2022-08-03T11:57:48;0.98;;;0.98;;
12296;SDS011;6211;49.124;9.152;2022-08-03T12:00:21;3.90;;;1.20;;
12296;SDS011;6211;49.124;9.152;2022-08-03T12:02:55;0.98;;;0.98;;
12296;SDS011;6211;49.124;9.152;2022-08-03T12:05:31;0.90;;;0.90;;
12296;SDS011;6211;49.124;9.152;2022-08-03T12:07:59;0.80;;;0.80;;
12296;SDS011;6211;49.124;9.152;2022-08-03T12:10:26;0.93;;;0.90;;
12296;SDS011;6211;49.124;9.152;2022-08-03T12:12:54;1.00;;;1.00;;
12296;SDS011;6211;49.124;9.152;2022-08-03T12:15:25;1.00;;;1.00;;
12296;SDS011;6211;49.124;9.152;2022-08-03T12:17:52;0.82;;;0.82;;
12296;SDS011;6211;49.124;9.152;2022-08-03T12:20:20;1.20;;;1.10;;
12296;SDS011;6211;49.124;9.152;2022-08-03T12:22:47;1.05;;;0.95;;
12296;SDS011;6211;49.124;9.152;2022-08-03T12:25:19;0.85;;;0.85;;
12296;SDS011;6211;49.124;9.152;2022-08-03T12:27:47;1.60;;;0.95;;
12296;SDS011;6211;49.124;9.152;2022-08-03T12:30:14;1.23;;;1.00;;
12296;SDS011;6211;49.124;9.152;2022-08-03T12:32:43;1.05;;;0.95;;
12296;SDS011;6211;49.124;9.152;2022-08-03T12:35:15;1.00;;;1.00;;
12296;SDS011;6211;49.124;9.152;2022-08-03T12:37:47;2.65;;;0.70;;
12296;SDS011;6211;49.124;9.152;2022-08-03T12:40:15;0.80;;;0.80;;
12296;SDS011;6211;49.124;9.152;2022-08-03T12:42:49;0.73;;;0.73;;
12296;SDS011;6211;49.124;9.152;2022-08-03T12:45:17;0.80;;;0.80;;
12296;SDS011;6211;49.124;9.152;2022-08-03T12:47:49;1.27;;;1.17;;
12296;SDS011;6211;49.124;9.152;2022-08-03T12:50:22;0.90;;;0.90;;
12296;SDS011;6211;49.124;9.152;2022-08-03T12:52:49;1.10;;;1.10;;
12296;SDS011;6211;49.124;9.152;2022-08-03T12:55:18;0.80;;;0.80;;
12296;SDS011;6211;49.124;9.152;2022-08-03T12:57:45;1.00;;;1.00;;
12296;SDS011;6211;49.124;9.152;2022-08-03T13:00:13;1.00;;;1.00;;
12296;SDS011;6211;49.124;9.152;2022-08-03T13:02:40;1.05;;;0.90;;
12296;SDS011;6211;49.124;9.152;2022-08-03T13:05:09;1.00;;;1.00;;
12296;SDS011;6211;49.124;9.152;2022-08-03T13:07:39;0.98;;;0.98;;
12296;SDS011;6211;49.124;9.152;2022-08-03T13:10:07;0.95;;;0.95;;
12296;SDS011;6211;49.124;9.152;2022-08-03T13:12:44;0.90;;;0.90;;
12296;SDS011;6211;49.124;9.152;2022-08-03T13:15:12;0.80;;;0.80;;
12296;SDS011;6211;49.124;9.152;2022-08-03T13:17:39;2.30;;;0.98;;
12296;SDS011;6211;49.124;9.152;2022-08-03T13:20:07;0.93;;;0.93;;
12296;SDS011;6211;49.124;9.152;2022-08-03T13:22:35;1.15;;;1.13;;
12296;SDS011;6211;49.124;9.152;2022-08-03T13:25:03;0.90;;;0.90;;
12296;SDS011;6211;49.124;9.152;2022-08-03T13:27:30;1.13;;;1.02;;
12296;SDS011;6211;49.124;9.152;2022-08-03T13:29:57;0.88;;;0.88;;
12296;SDS011;6211;49.124;9.152;2022-08-03T13:32:24;1.17;;;1.10;;
12296;SDS011;6211;49.124;9.152;2022-08-03T13:34:51;0.90;;;0.90;;
12296;SDS011;6211;49.124;9.152;2022-08-03T13:37:19;0.98;;;0.88;;
12296;SDS011;6211;49.124;9.152;2022-08-03T13:39:47;0.70;;;0.70;;
12296;SDS011;6211;49.124;9.152;2022-08-03T13:42:14;1.08;;;1.08;;
12296;SDS011;6211;49.124;9.152;2022-08-03T13:44:41;1.27;;;0.90;;
12296;SDS011;6211;49.124;9.152;2022-08-03T13:47:09;0.90;;;0.90;;
12296;SDS011;6211;49.124;9.152;2022-08-03T13:49:36;1.20;;;1.10;;
12296;SDS011;6211;49.124;9.152;2022-08-03T13:52:03;0.90;;;0.90;;
12296;SDS011;6211;49.124;9.152;2022-08-03T13:54:30;1.48;;;1.00;;
12296;SDS011;6211;49.124;9.152;2022-08-03T13:56:59;1.00;;;1.00;;
12296;SDS011;6211;49.124;9.152;2022-08-03T13:59:26;0.77;;;0.77;;
12296;SDS011;6211;49.124;9.152;2022-08-03T14:01:53;0.95;;;0.95;;
12296;SDS011;6211;49.124;9.152;2022-08-03T14:04:21;0.80;;;0.80;;
12296;SDS011;6211;49.124;9.152;2022-08-03T14:06:48;1.00;;;1.00;;
12296;SDS011;6211;49.124;9.152;2022-08-03T14:09:15;1.00;;;1.00;;
12296;SDS011;6211;49.124;9.152;2022-08-03T14:11:42;1.20;;;1.10;;
12296;SDS011;6211;49.124;9.152;2022-08-03T14:14:11;2.17;;;1.10;;
12296;SDS011;6211;49.124;9.152;2022-08-03T14:16:38;0.80;;;0.80;;
12296;SDS011;6211;49.124;9.152;2022-08-03T14:19:05;1.10;;;1.10;;
12296;SDS011;6211;49.124;9.152;2022-08-03T14:21:32;0.95;;;0.95;;
12296;SDS011;6211;49.124;9.152;2022-08-03T14:24:00;1.05;;;1.05;;
12296;SDS011;6211;49.124;9.152;2022-08-03T14:26:27;1.00;;;1.00;;
12296;SDS011;6211;49.124;9.152;2022-08-03T14:28:54;1.17;;;1.13;;
12296;SDS011;6211;49.124;9.152;2022-08-03T14:31:23;0.80;;;0.80;;
12296;SDS011;6211;49.124;9.152;2022-08-03T14:33:50;0.80;;;0.80;;
12296;SDS011;6211;49.124;9.152;2022-08-03T14:36:17;1.00;;;1.00;;
12296;SDS011;6211;49.124;9.152;2022-08-03T14:38:44;0.93;;;0.90;;
12296;SDS011;6211;49.124;9.152;2022-08-03T14:41:12;0.93;;;0.93;;
12296;SDS011;6211;49.124;9.152;2022-08-03T14:43:39;0.93;;;0.93;;
12296;SDS011;6211;49.124;9.152;2022-08-03T14:46:06;1.63;;;1.33;;
12296;SDS011;6211;49.124;9.152;2022-08-03T14:48:34;1.20;;;1.20;;
12296;SDS011;6211;49.124;9.152;2022-08-03T14:51:01;1.30;;;1.30;;
12296;SDS011;6211;49.124;9.152;2022-08-03T14:53:29;1.33;;;1.33;;
12296;SDS011;6211;49.124;9.152;2022-08-03T14:55:56;1.20;;;1.20;;
12296;SDS011;6211;49.124;9.152;2022-08-03T14:58:23;1.00;;;1.00;;
12296;SDS011;6211;49.124;9.152;2022-08-03T15:00:51;1.20;;;1.20;;
12296;SDS011;6211;49.124;9.152;2022-08-03T15:03:19;3.30;;;1.30;;
12296;SDS011;6211;49.124;9.152;2022-08-03T15:05:50;1.30;;;1.20;;
12296;SDS011;6211;49.124;9.152;2022-08-03T15:08:17;1.00;;;1.00;;
12296;SDS011;6211;49.124;9.152;2022-08-03T15:10:44;1.20;;;1.20;;
12296;SDS011;6211;49.124;9.152;2022-08-03T15:13:12;1.10;;;1.10;;
12296;SDS011;6211;49.124;9.152;2022-08-03T15:15:39;1.20;;;1.20;;